Summitt, Oklahoma
Current Conditions -  °F | °C
As of 2:53 AM on Sunday 26 Oct 2014 (Local Time) from KMKO Reporting Station
Clear Clear  
Wind Chill: 62°   Ceiling: Unl
Heat Index: 62°   Visibility: 9mi
Dew Point: 60°   Wind: 6mph
Humidity: 93%   Direction: 160°SSE
Pressure: 29.99"   Gusts: NA
Location:  35.6818°N, 95.3578°W
Report Text: KMKO 260753Z AUTO 16005KT 9SM CLR 17/16 A2999 RMK AO2 SLP147 T01670156
Loading
Personal Weather Stations






























Interactive Weather Map
Tropical Storm Tracking
New forecast layout! Learn more

10-Day Weather Forecast

Advertisements
Track Severe Weather on mobile